createdAt,value
2022-10-01T00:02:09.424Z,4.18
2022-10-01T00:04:39.530Z,4.45
2022-10-01T00:07:10.877Z,5.85
2022-10-01T00:09:39.371Z,4.57
2022-10-01T00:12:08.231Z,3.53
2022-10-01T00:14:39.084Z,5.07
2022-10-01T00:17:07.571Z,4.00
2022-10-01T00:19:36.025Z,3.75
2022-10-01T00:22:04.400Z,5.50
2022-10-01T00:24:33.615Z,6.15
2022-10-01T00:27:02.213Z,4.90
2022-10-01T00:29:31.883Z,6.82
2022-10-01T00:32:00.708Z,4.95
2022-10-01T00:34:29.211Z,3.95
2022-10-01T00:36:57.676Z,4.10
2022-10-01T00:39:26.063Z,3.97
2022-10-01T00:41:54.593Z,5.35
2022-10-01T00:44:35.460Z,3.70
2022-10-01T00:47:19.433Z,5.38
2022-10-01T00:49:50.479Z,4.85
2022-10-01T00:52:24.693Z,4.68
2022-10-01T00:54:57.607Z,4.53
2022-10-01T00:57:27.279Z,4.03
2022-10-01T01:00:01.206Z,4.32
2022-10-01T01:02:29.583Z,3.97
2022-10-01T01:04:58.862Z,3.90
2022-10-01T01:07:29.264Z,3.72
2022-10-01T01:09:58.925Z,3.40
2022-10-01T01:12:53.940Z,4.22
2022-10-01T01:15:42.233Z,4.70
2022-10-01T01:18:30.513Z,3.95
2022-10-01T01:21:02.592Z,4.43
2022-10-01T01:26:05.363Z,3.95
2022-10-01T01:28:39.132Z,4.90
2022-10-01T01:31:13.690Z,4.35
2022-10-01T01:33:46.439Z,3.78
2022-10-01T01:36:19.145Z,4.85
2022-10-01T01:38:57.474Z,3.65
2022-10-01T01:41:32.484Z,3.70
2022-10-01T01:44:03.236Z,6.40
2022-10-01T01:46:34.853Z,2.50
2022-10-01T01:49:05.215Z,3.40
2022-10-01T01:51:44.394Z,5.32
2022-10-01T01:54:12.769Z,4.40
2022-10-01T01:56:41.446Z,2.88
2022-10-01T01:59:10.344Z,3.60
2022-10-01T02:01:41.633Z,3.28
2022-10-01T02:04:23.800Z,2.63
2022-10-01T02:07:10.839Z,3.28
2022-10-01T02:09:42.234Z,2.63
2022-10-01T02:12:37.645Z,2.40
2022-10-01T02:15:17.133Z,2.63
2022-10-01T02:18:01.848Z,2.28
2022-10-01T02:20:39.355Z,2.58
2022-10-01T02:23:11.246Z,2.45
2022-10-01T02:25:49.859Z,2.15
2022-10-01T02:28:23.731Z,2.53
2022-10-01T02:30:54.332Z,2.95
2022-10-01T02:33:34.315Z,2.40
2022-10-01T02:36:06.257Z,2.83
2022-10-01T02:38:39.813Z,1.90
2022-10-01T02:41:12.030Z,3.33
2022-10-01T02:43:51.365Z,1.80
2022-10-01T02:46:46.913Z,2.35
2022-10-01T02:49:15.715Z,1.27
2022-10-01T02:51:56.428Z,1.73
2022-10-01T02:54:28.109Z,1.85
2022-10-01T02:57:16.471Z,1.58
2022-10-01T02:59:44.923Z,4.05
2022-10-01T03:02:13.551Z,1.50
2022-10-01T03:04:42.035Z,1.27
2022-10-01T03:07:10.368Z,1.60
2022-10-01T03:09:38.704Z,1.02
2022-10-01T03:12:07.178Z,2.80
2022-10-01T03:14:35.492Z,1.20
2022-10-01T03:17:06.937Z,1.75
2022-10-01T03:19:35.389Z,1.50
2022-10-01T03:22:03.863Z,1.33
2022-10-01T03:24:32.315Z,1.38
2022-10-01T03:27:00.932Z,1.85
2022-10-01T03:29:29.400Z,1.70
2022-10-01T03:31:57.958Z,2.70
2022-10-01T03:34:26.616Z,3.80
2022-10-01T03:36:54.957Z,1.40
2022-10-01T03:39:23.373Z,1.48
2022-10-01T03:41:51.734Z,1.33
2022-10-01T03:44:20.069Z,1.17
2022-10-01T03:46:48.715Z,1.48
2022-10-01T03:49:17.046Z,1.02
2022-10-01T03:51:45.512Z,1.77
2022-10-01T03:54:14.008Z,1.33
2022-10-01T03:56:42.620Z,1.20
2022-10-01T03:59:11.231Z,0.75
2022-10-01T04:01:39.934Z,0.82
2022-10-01T04:04:08.492Z,1.40
2022-10-01T04:06:36.797Z,0.90
2022-10-01T04:09:05.305Z,1.00
2022-10-01T04:11:34.039Z,1.00
2022-10-01T04:14:02.612Z,1.00
2022-10-01T04:16:31.130Z,1.02
2022-10-01T04:18:59.517Z,0.80
2022-10-01T04:21:27.948Z,1.08
2022-10-01T04:23:56.296Z,0.80
2022-10-01T04:26:25.109Z,0.98
2022-10-01T04:28:53.483Z,0.98
2022-10-01T04:31:24.829Z,0.85
2022-10-01T04:33:55.180Z,0.90
2022-10-01T04:36:24.760Z,0.98
2022-10-01T04:38:59.287Z,1.00
2022-10-01T04:41:31.105Z,0.95
2022-10-01T04:44:00.536Z,1.00
2022-10-01T04:46:30.419Z,0.98
2022-10-01T04:48:59.081Z,0.73
2022-10-01T04:51:27.480Z,0.90
2022-10-01T04:53:56.840Z,1.42
2022-10-01T04:56:25.237Z,2.85
2022-10-01T04:58:53.607Z,0.90
2022-10-01T05:01:22.117Z,0.90
2022-10-01T05:03:50.523Z,0.82
2022-10-01T05:06:18.890Z,1.08
2022-10-01T05:08:48.710Z,2.67
2022-10-01T05:11:17.078Z,1.20
2022-10-01T05:13:45.465Z,1.35
2022-10-01T05:16:13.835Z,1.13
2022-10-01T05:18:42.729Z,1.38
2022-10-01T05:21:11.751Z,1.90
2022-10-01T05:23:40.151Z,1.25
2022-10-01T05:26:08.630Z,1.45
2022-10-01T05:28:37.132Z,1.75
2022-10-01T05:31:05.771Z,1.38
2022-10-01T05:33:34.237Z,1.05
2022-10-01T05:36:06.777Z,1.55
2022-10-01T05:38:37.189Z,1.60
2022-10-01T05:41:05.764Z,1.35
2022-10-01T05:43:36.029Z,1.58
2022-10-01T05:46:05.575Z,1.38
2022-10-01T05:48:37.640Z,2.00
2022-10-01T05:51:07.937Z,1.88
2022-10-01T05:53:40.245Z,2.78
2022-10-01T05:56:10.495Z,1.30
2022-10-01T05:58:38.819Z,1.73
2022-10-01T06:01:07.411Z,1.65
2022-10-01T06:03:36.108Z,2.03
2022-10-01T06:06:05.630Z,2.70
2022-10-01T06:08:36.964Z,1.63
2022-10-01T06:11:05.642Z,3.70
2022-10-01T06:13:35.840Z,1.77
2022-10-01T06:16:04.491Z,2.75
2022-10-01T06:18:33.019Z,1.92
2022-10-01T06:21:01.545Z,2.55
2022-10-01T06:23:29.933Z,5.25
2022-10-01T06:26:00.275Z,2.50
2022-10-01T06:28:28.902Z,1.73
2022-10-01T06:30:57.436Z,3.25
2022-10-01T06:33:25.894Z,2.63
2022-10-01T06:35:55.471Z,2.60
2022-10-01T06:38:25.365Z,3.00
2022-10-01T06:40:57.415Z,2.50
2022-10-01T06:45:55.602Z,3.22
2022-10-01T06:48:23.981Z,2.72
2022-10-01T06:50:53.134Z,4.00
2022-10-01T06:53:21.954Z,2.67
2022-10-01T06:55:50.472Z,2.75
2022-10-01T06:58:21.762Z,5.13
2022-10-01T07:00:51.200Z,3.10
2022-10-01T07:03:21.507Z,3.03
2022-10-01T07:05:50.336Z,2.95
2022-10-01T07:08:19.211Z,2.65
2022-10-01T07:10:47.600Z,3.05
2022-10-01T07:13:18.415Z,2.65
2022-10-01T07:15:47.247Z,2.95
2022-10-01T07:18:16.746Z,3.75
2022-10-01T07:20:45.064Z,2.70
2022-10-01T07:23:15.380Z,5.32
2022-10-01T07:25:44.604Z,4.25
2022-10-01T07:28:19.562Z,5.53
2022-10-01T07:31:03.707Z,4.72
2022-10-01T07:33:32.732Z,4.95
2022-10-01T07:36:03.015Z,4.60
2022-10-01T07:38:33.404Z,4.65
2022-10-01T07:41:03.356Z,4.43
2022-10-01T07:43:33.164Z,4.28
2022-10-01T07:46:01.954Z,5.75
2022-10-01T07:48:31.041Z,4.60
2022-10-01T07:50:59.416Z,4.32
2022-10-01T07:53:28.328Z,5.90
2022-10-01T07:56:00.902Z,4.57
2022-10-01T07:58:29.388Z,5.88
2022-10-01T08:01:00.540Z,4.63
2022-10-01T08:03:29.098Z,5.60
2022-10-01T08:05:57.563Z,5.68
2022-10-01T08:08:26.011Z,4.78
2022-10-01T08:10:54.961Z,6.40
2022-10-01T08:13:27.294Z,5.75
2022-10-01T08:15:55.752Z,5.50
2022-10-01T08:18:24.137Z,4.85
2022-10-01T08:20:52.634Z,5.38
2022-10-01T08:23:21.644Z,5.70
2022-10-01T08:25:50.119Z,4.78
2022-10-01T08:28:19.707Z,4.60
2022-10-01T08:30:48.339Z,4.57
2022-10-01T08:33:16.863Z,5.18
2022-10-01T08:35:46.239Z,5.70
2022-10-01T08:38:15.226Z,3.92
2022-10-01T08:40:49.882Z,3.75
2022-10-01T08:43:26.264Z,4.97
2022-10-01T08:45:59.838Z,3.65
2022-10-01T08:48:40.231Z,4.45
2022-10-01T08:51:32.761Z,3.13
2022-10-01T08:54:13.591Z,3.72
2022-10-01T08:56:46.244Z,3.05
2022-10-01T08:59:36.181Z,5.50
2022-10-01T09:02:25.319Z,3.42
2022-10-01T09:05:01.223Z,4.00
2022-10-01T09:07:51.643Z,4.00
2022-10-01T09:10:28.330Z,4.18
2022-10-01T09:13:50.564Z,3.80
2022-10-01T09:16:28.022Z,5.90
2022-10-01T09:19:15.114Z,5.55
2022-10-01T09:21:57.317Z,4.75
2022-10-01T09:27:27.394Z,4.25
2022-10-01T09:30:03.790Z,4.22
2022-10-01T09:32:39.580Z,4.05
2022-10-01T09:35:23.600Z,6.22
2022-10-01T09:37:59.466Z,8.90
2022-10-01T09:40:35.657Z,6.97
2022-10-01T09:43:08.130Z,5.05
2022-10-01T09:45:37.560Z,5.63
2022-10-01T09:48:25.092Z,3.60
2022-10-01T09:51:10.469Z,5.43
2022-10-01T09:54:01.089Z,7.18
2022-10-01T09:56:42.723Z,8.05
2022-10-01T09:59:19.472Z,4.43
2022-10-01T10:01:55.678Z,5.85
2022-10-01T10:04:24.600Z,3.45
2022-10-01T10:07:05.339Z,5.55
2022-10-01T10:09:35.689Z,4.40
2022-10-01T10:12:09.806Z,4.68
2022-10-01T10:14:44.768Z,5.47
2022-10-01T10:17:20.597Z,4.78
2022-10-01T10:19:52.284Z,8.60
2022-10-01T10:22:26.174Z,4.50
2022-10-01T10:24:58.860Z,6.10
2022-10-01T10:27:29.700Z,4.50
2022-10-01T10:30:02.823Z,6.07
2022-10-01T10:32:32.146Z,7.25
2022-10-01T10:35:05.508Z,10.40
2022-10-01T10:37:38.027Z,4.35
2022-10-01T10:40:08.362Z,6.60
2022-10-01T10:42:38.907Z,6.07
2022-10-01T10:45:17.876Z,10.77
2022-10-01T10:47:51.488Z,5.43
2022-10-01T10:50:42.552Z,7.40
2022-10-01T10:53:19.823Z,10.27
2022-10-01T10:56:01.975Z,8.05
2022-10-01T11:01:16.286Z,4.97
2022-10-01T11:03:48.836Z,4.93
2022-10-01T11:06:18.718Z,5.15
2022-10-01T11:08:57.283Z,7.45
2022-10-01T11:11:43.172Z,7.55
2022-10-01T11:14:23.891Z,8.48
2022-10-01T11:17:19.967Z,4.03
2022-10-01T11:19:48.396Z,7.45
2022-10-01T11:22:28.849Z,5.13
2022-10-01T11:25:16.297Z,4.10
2022-10-01T11:27:44.725Z,7.03
2022-10-01T11:30:21.232Z,5.15
2022-10-01T11:33:17.191Z,5.57
2022-10-01T11:36:19.196Z,6.18
2022-10-01T11:39:10.306Z,5.20
2022-10-01T11:41:52.874Z,6.55
2022-10-01T11:44:37.221Z,5.70
2022-10-01T11:47:36.781Z,6.65
2022-10-01T11:50:14.907Z,6.82
2022-10-01T11:52:53.705Z,5.25
2022-10-01T11:55:46.314Z,6.05
2022-10-01T11:58:37.289Z,5.55
2022-10-01T12:01:11.920Z,6.72
2022-10-01T12:04:12.152Z,6.90
2022-10-01T12:07:02.998Z,11.13
2022-10-01T12:09:50.259Z,5.35
2022-10-01T12:12:23.092Z,4.40
2022-10-01T12:15:08.802Z,6.05
2022-10-01T12:17:47.245Z,7.97
2022-10-01T12:20:31.695Z,5.97
2022-10-01T12:23:05.190Z,4.90
2022-10-01T12:25:46.913Z,5.22
2022-10-01T12:28:28.235Z,4.22
2022-10-01T12:31:12.474Z,9.57
2022-10-01T12:33:47.261Z,5.07
2022-10-01T12:36:36.559Z,6.20
2022-10-01T12:39:39.198Z,4.72
2022-10-01T12:42:31.557Z,6.20
2022-10-01T12:47:50.825Z,5.82
2022-10-01T12:50:26.425Z,4.07
2022-10-01T12:53:06.215Z,3.72
2022-10-01T12:56:00.899Z,6.53
2022-10-01T12:59:06.636Z,4.35
2022-10-01T13:02:02.258Z,6.78
2022-10-01T13:04:56.892Z,4.53
2022-10-01T13:07:28.404Z,7.60
2022-10-01T13:09:57.914Z,5.07
2022-10-01T13:12:49.414Z,3.92
2022-10-01T13:15:22.876Z,6.20
2022-10-01T13:18:35.933Z,5.88
2022-10-01T13:21:29.266Z,5.20
2022-10-01T13:24:23.952Z,5.22
2022-10-01T13:27:07.351Z,7.30
2022-10-01T13:29:45.086Z,6.28
2022-10-01T13:32:27.591Z,4.95
2022-10-01T13:34:57.371Z,5.50
2022-10-01T13:37:38.472Z,4.32
2022-10-01T13:40:32.499Z,3.55
2022-10-01T13:43:18.464Z,5.75
2022-10-01T13:45:50.578Z,4.65
2022-10-01T13:48:23.417Z,3.10
2022-10-01T13:51:05.488Z,5.28
2022-10-01T13:53:58.501Z,3.30
2022-10-01T13:56:35.058Z,5.03
2022-10-01T13:59:21.314Z,4.60
2022-10-01T14:01:50.870Z,3.92
2022-10-01T14:04:19.224Z,4.82
2022-10-01T14:06:47.680Z,4.05
2022-10-01T14:09:19.114Z,4.47
2022-10-01T14:12:10.518Z,4.50
2022-10-01T14:15:21.214Z,4.83
2022-10-01T14:17:55.701Z,5.68
2022-10-01T14:20:30.133Z,4.35
2022-10-01T14:23:10.978Z,3.65
2022-10-01T14:25:54.013Z,4.18
2022-10-01T14:28:37.810Z,4.68
2022-10-01T14:31:19.625Z,4.47
2022-10-01T14:33:51.000Z,6.65
2022-10-01T14:36:45.019Z,4.68
2022-10-01T14:39:26.752Z,3.85
2022-10-01T14:41:57.551Z,6.13
2022-10-01T14:44:41.714Z,4.60
2022-10-01T14:47:27.874Z,4.20
2022-10-01T14:49:56.255Z,3.30
2022-10-01T14:52:28.827Z,7.88
2022-10-01T14:55:01.686Z,3.72
2022-10-01T14:57:34.657Z,4.07
2022-10-01T15:00:13.525Z,4.32
2022-10-01T15:02:49.320Z,4.40
2022-10-01T15:05:28.814Z,8.18
2022-10-01T15:07:57.412Z,4.13
2022-10-01T15:10:27.855Z,5.75
2022-10-01T15:12:56.434Z,5.38
2022-10-01T15:15:32.594Z,4.45
2022-10-01T15:18:04.338Z,5.97
2022-10-01T15:20:32.770Z,3.20
2022-10-01T15:23:04.943Z,4.68
2022-10-01T15:25:33.393Z,5.45
2022-10-01T15:28:01.799Z,5.55
2022-10-01T15:30:32.643Z,5.40
2022-10-01T15:33:02.098Z,5.25
2022-10-01T15:35:32.441Z,4.95
2022-10-01T15:38:00.965Z,5.03
2022-10-01T15:40:35.314Z,5.05
2022-10-01T15:43:06.779Z,6.10
2022-10-01T15:45:35.700Z,4.10
2022-10-01T15:48:04.147Z,3.63
2022-10-01T15:50:36.817Z,5.40
2022-10-01T15:53:22.012Z,5.20
2022-10-01T15:55:52.732Z,6.32
2022-10-01T15:58:36.696Z,5.82
2022-10-01T16:01:09.605Z,4.78
2022-10-01T16:03:49.554Z,5.88
2022-10-01T16:06:23.672Z,6.65
2022-10-01T16:09:10.461Z,5.43
2022-10-01T16:11:56.519Z,3.67
2022-10-01T16:14:32.094Z,4.47
2022-10-01T16:17:19.075Z,3.83
2022-10-01T16:19:49.824Z,7.18
2022-10-01T16:22:31.851Z,4.53
2022-10-01T16:25:07.075Z,4.05
2022-10-01T16:27:58.421Z,4.90
2022-10-01T16:30:28.294Z,5.18
2022-10-01T16:32:59.206Z,7.28
2022-10-01T16:35:35.934Z,3.70
2022-10-01T16:38:09.083Z,6.75
2022-10-01T16:40:40.867Z,4.47
2022-10-01T16:43:19.867Z,4.15
2022-10-01T16:45:48.277Z,4.55
2022-10-01T16:48:22.280Z,3.95
2022-10-01T16:50:53.642Z,6.18
2022-10-01T16:53:24.698Z,6.45
2022-10-01T16:55:53.206Z,5.63
2022-10-01T16:58:21.856Z,6.28
2022-10-01T17:00:51.496Z,4.63
2022-10-01T17:03:22.373Z,6.63
2022-10-01T17:05:50.772Z,7.38
2022-10-01T17:08:19.141Z,3.92
2022-10-01T17:10:53.168Z,8.10
2022-10-01T17:13:21.669Z,4.32
2022-10-01T17:15:51.690Z,4.78
2022-10-01T17:18:20.760Z,7.13
2022-10-01T17:20:49.158Z,4.78
2022-10-01T17:23:19.890Z,8.45
2022-10-01T17:25:48.470Z,8.77
2022-10-01T17:28:19.940Z,4.38
2022-10-01T17:30:49.557Z,4.32
2022-10-01T17:33:19.573Z,5.32
2022-10-01T17:35:51.813Z,4.70
2022-10-01T17:38:21.251Z,8.10
2022-10-01T17:40:55.482Z,7.43
2022-10-01T17:43:25.199Z,5.72
2022-10-01T17:46:00.783Z,4.50
2022-10-01T17:48:30.016Z,6.13
2022-10-01T17:51:09.689Z,3.88
2022-10-01T17:53:42.432Z,4.82
2022-10-01T17:56:16.675Z,4.53
2022-10-01T17:58:46.300Z,9.07
2022-10-01T18:01:19.820Z,8.07
2022-10-01T18:03:55.690Z,5.30
2022-10-01T18:06:26.394Z,7.15
2022-10-01T18:08:56.300Z,5.70
2022-10-01T18:11:27.285Z,5.18
2022-10-01T18:13:55.864Z,8.68
2022-10-01T18:16:24.632Z,6.53
2022-10-01T18:21:50.899Z,5.10
2022-10-01T18:24:19.324Z,4.10
2022-10-01T18:26:47.979Z,5.05
2022-10-01T18:29:22.592Z,3.70
2022-10-01T18:31:54.079Z,6.05
2022-10-01T18:34:29.676Z,5.35
2022-10-01T18:36:58.033Z,7.40
2022-10-01T18:40:10.656Z,6.93
2022-10-01T18:42:57.801Z,4.85
2022-10-01T18:45:54.829Z,7.68
2022-10-01T18:48:47.531Z,5.20
2022-10-01T18:51:35.265Z,6.40
2022-10-01T18:54:14.656Z,6.18
2022-10-01T18:57:33.761Z,6.18
2022-10-01T19:00:23.405Z,6.55
2022-10-01T19:03:03.377Z,6.05
2022-10-01T19:05:56.938Z,5.40
2022-10-01T19:09:03.272Z,5.60
2022-10-01T19:12:09.142Z,7.97
2022-10-01T19:15:13.675Z,5.93
2022-10-01T19:17:50.917Z,6.50
2022-10-01T19:20:46.208Z,5.05
2022-10-01T19:23:17.437Z,7.32
2022-10-01T19:25:50.586Z,8.90
2022-10-01T19:28:37.750Z,5.68
2022-10-01T19:31:19.709Z,8.07
2022-10-01T19:33:57.754Z,7.03
2022-10-01T19:36:34.265Z,8.30
2022-10-01T19:39:09.689Z,6.72
2022-10-01T19:41:44.411Z,6.82
2022-10-01T19:44:31.856Z,7.38
2022-10-01T19:47:22.253Z,7.75
2022-10-01T19:49:52.511Z,6.22
2022-10-01T19:52:24.234Z,8.93
2022-10-01T19:54:55.697Z,6.10
2022-10-01T19:57:28.003Z,7.20
2022-10-01T19:59:59.439Z,12.77
2022-10-01T20:02:36.377Z,10.38
2022-10-01T20:05:09.430Z,7.18
2022-10-01T20:07:47.608Z,6.18
2022-10-01T20:10:41.545Z,9.52
2022-10-01T20:13:33.361Z,6.60
2022-10-01T20:16:18.002Z,8.32
2022-10-01T20:19:04.983Z,7.97
2022-10-01T20:21:49.370Z,8.00
2022-10-01T20:24:51.621Z,7.57
2022-10-01T20:27:47.103Z,5.97
2022-10-01T20:30:20.282Z,7.03
2022-10-01T20:33:01.492Z,6.07
2022-10-01T20:35:55.598Z,9.88
2022-10-01T20:38:39.650Z,7.00
2022-10-01T20:41:21.157Z,6.72
2022-10-01T20:44:00.238Z,8.48
2022-10-01T20:46:44.344Z,8.30
2022-10-01T20:49:15.852Z,10.25
2022-10-01T20:51:55.608Z,5.55
2022-10-01T20:54:35.298Z,5.25
2022-10-01T20:57:24.426Z,5.22
2022-10-01T20:59:56.335Z,7.63
2022-10-01T21:02:24.758Z,6.68
2022-10-01T21:05:07.570Z,8.10
2022-10-01T21:07:51.183Z,5.65
2022-10-01T21:10:42.546Z,7.43
2022-10-01T21:13:19.762Z,9.65
2022-10-01T21:16:16.092Z,6.70
2022-10-01T21:19:17.212Z,8.10
2022-10-01T21:22:13.588Z,7.80
2022-10-01T21:25:12.649Z,6.68
2022-10-01T21:28:00.182Z,7.68
2022-10-01T21:30:45.822Z,7.57
2022-10-01T21:33:19.676Z,8.32
2022-10-01T21:36:02.269Z,6.63
2022-10-01T21:38:49.671Z,7.75
2022-10-01T21:41:40.018Z,6.90
2022-10-01T21:44:42.557Z,7.55
2022-10-01T21:50:05.369Z,8.65
2022-10-01T21:53:02.709Z,9.10
2022-10-01T21:55:41.363Z,10.63
2022-10-01T21:58:30.614Z,8.55
2022-10-01T22:01:17.616Z,6.28
2022-10-01T22:04:02.655Z,6.07
2022-10-01T22:06:44.937Z,7.55
2022-10-01T22:11:52.760Z,12.25
2022-10-01T22:14:22.459Z,8.15
2022-10-01T22:16:57.373Z,7.43
2022-10-01T22:19:29.443Z,7.45
2022-10-01T22:24:46.533Z,9.90
2022-10-01T22:27:24.989Z,9.38
2022-10-01T22:29:58.413Z,8.95
2022-10-01T22:32:33.130Z,7.45
2022-10-01T22:35:14.365Z,11.95
2022-10-01T22:38:18.713Z,9.10
2022-10-01T22:40:55.245Z,7.88
2022-10-01T22:43:23.600Z,16.50
2022-10-01T22:46:07.831Z,9.88
2022-10-01T22:48:58.204Z,10.00
2022-10-01T22:51:37.206Z,11.68
2022-10-01T22:54:17.999Z,8.27
2022-10-01T22:56:54.306Z,9.05
2022-10-01T22:59:46.886Z,10.20
2022-10-01T23:02:51.195Z,5.80
2022-10-01T23:05:35.122Z,15.77
2022-10-01T23:08:09.607Z,8.60
2022-10-01T23:10:59.464Z,9.38
2022-10-01T23:14:02.318Z,13.30
2022-10-01T23:16:51.813Z,9.50
2022-10-01T23:19:54.878Z,10.85
2022-10-01T23:22:41.549Z,7.32
2022-10-01T23:25:38.882Z,8.07
2022-10-01T23:28:41.599Z,10.63
2022-10-01T23:31:12.897Z,11.68
2022-10-01T23:34:18.867Z,10.38
2022-10-01T23:36:53.216Z,10.70
2022-10-01T23:39:41.105Z,8.70
2022-10-01T23:42:15.738Z,8.20
2022-10-01T23:44:52.324Z,8.57
2022-10-01T23:47:35.982Z,12.00
2022-10-01T23:50:07.747Z,10.38
2022-10-01T23:52:47.493Z,9.55
2022-10-01T23:55:59.876Z,9.02
2022-10-01T23:58:35.304Z,9.18
